createdAt,value
2022-11-18T00:04:11.549Z,1000.99
2022-11-18T00:18:11.544Z,1000.78
2022-11-18T00:32:11.586Z,1000.5
2022-11-18T00:46:11.571Z,1000.24
2022-11-18T01:00:11.558Z,1000.63
2022-11-18T01:14:11.558Z,1000.5
2022-11-18T01:28:11.588Z,1000.37
2022-11-18T01:42:11.600Z,1000.33
2022-11-18T01:56:11.589Z,1000.1
2022-11-18T02:10:11.576Z,999.45
2022-11-18T02:24:11.584Z,999.53
2022-11-18T02:38:11.587Z,999.11
2022-11-18T02:52:11.585Z,998.7
2022-11-18T03:06:11.590Z,998.47
2022-11-18T03:20:11.615Z,998.13
2022-11-18T03:34:11.582Z,998.02
2022-11-18T03:48:11.600Z,998.37
2022-11-18T04:02:11.681Z,998.42
2022-11-18T04:16:11.633Z,998.29
2022-11-18T04:30:11.635Z,998.04
2022-11-18T04:44:11.631Z,997.67
2022-11-18T04:58:11.631Z,997.94
2022-11-18T05:12:11.645Z,998.04
2022-11-18T05:26:11.636Z,997.93
2022-11-18T05:40:11.673Z,997.62
2022-11-18T05:54:11.648Z,997.66
2022-11-18T06:08:11.651Z,997.8
2022-11-18T06:23:11.674Z,997.91
2022-11-18T06:38:11.728Z,998.35
2022-11-18T06:53:11.692Z,998.67
2022-11-18T07:08:11.734Z,998.68
2022-11-18T07:23:11.724Z,998.78
2022-11-18T07:38:11.735Z,998.75
2022-11-18T07:53:11.698Z,998.82
2022-11-18T08:08:11.708Z,998.88
2022-11-18T08:23:11.738Z,998.94
2022-11-18T08:38:11.756Z,999.04
2022-11-18T08:53:11.725Z,999.03
2022-11-18T09:08:11.717Z,998.93
2022-11-18T09:23:11.888Z,999.06
2022-11-18T09:38:11.880Z,999.03
2022-11-18T09:53:11.863Z,998.95
2022-11-18T10:08:11.896Z,998.99
2022-11-18T10:23:11.892Z,998.77
2022-11-18T10:38:11.897Z,998.65
2022-11-18T10:53:11.905Z,998.65
2022-11-18T11:08:34.924Z,998.51
2022-11-18T11:23:11.944Z,998.57
2022-11-18T11:38:11.923Z,998.63
2022-11-18T11:54:11.982Z,998.72
2022-11-18T12:09:11.954Z,998.9
2022-11-18T12:24:11.990Z,998.93
2022-11-18T12:39:11.980Z,999.24
2022-11-18T12:54:13.846Z,999.3
2022-11-18T13:09:12.002Z,999.39
2022-11-18T13:24:12.058Z,999.48
2022-11-18T13:39:12.137Z,999.49
2022-11-18T13:54:12.074Z,999.67
2022-11-18T14:09:12.081Z,999.92
2022-11-18T14:25:12.076Z,1000.08
2022-11-18T14:40:12.108Z,1000.32
2022-11-18T14:55:12.150Z,1000.38
2022-11-18T15:10:12.144Z,1000.56
2022-11-18T15:25:12.171Z,1000.55
2022-11-18T15:40:12.174Z,1000.78
2022-11-18T15:56:12.187Z,1000.88
2022-11-18T16:11:12.184Z,1001.08
2022-11-18T16:26:12.309Z,1001.24
2022-11-18T16:40:12.230Z,1001.33
2022-11-18T16:54:12.248Z,1001.17
2022-11-18T17:08:12.319Z,1001.54
2022-11-18T17:22:12.300Z,1001.93
2022-11-18T17:36:12.308Z,1002.18
2022-11-18T17:50:12.294Z,1002.18
2022-11-18T18:04:12.327Z,1002.36
2022-11-18T18:18:12.291Z,1002.88
2022-11-18T18:32:12.333Z,1003.23
2022-11-18T18:46:12.303Z,1003.18
2022-11-18T19:00:12.356Z,1003.13
2022-11-18T19:15:12.447Z,1003.14
2022-11-18T19:29:12.381Z,1003.01
2022-11-18T19:43:12.365Z,1002.76
2022-11-18T19:57:12.382Z,1002.99
2022-11-18T20:11:12.351Z,1003.1
2022-11-18T20:25:12.411Z,1003.16
2022-11-18T20:39:12.433Z,1003.35
2022-11-18T20:53:12.402Z,1003.52
2022-11-18T21:07:12.645Z,1003.75
2022-11-18T21:21:12.584Z,1003.95
2022-11-18T21:35:12.611Z,1003.99
2022-11-18T21:49:12.624Z,1004.09
2022-11-18T22:03:12.639Z,1004.27
2022-11-18T22:17:12.635Z,1004.23
2022-11-18T22:31:12.669Z,1004.36
2022-11-18T22:45:12.613Z,1004.46
2022-11-18T22:59:12.625Z,1004.61
2022-11-18T23:13:12.833Z,1004.78
2022-11-18T23:27:12.824Z,1005.01
2022-11-18T23:41:12.809Z,1005.02
2022-11-18T23:55:12.795Z,1005.17
